sensor_id;sensor_type;location;lat;lon;timestamp;P1;durP1;ratioP1;P2;durP2;ratioP2
36379;SDS011;22411;53.016;18.632;2023-07-08T00:00:47;3.80;;;1.95;;
36379;SDS011;22411;53.016;18.632;2023-07-08T00:03:35;5.32;;;2.38;;
36379;SDS011;22411;53.016;18.632;2023-07-08T00:06:01;3.58;;;1.83;;
36379;SDS011;22411;53.016;18.632;2023-07-08T00:08:27;2.97;;;1.98;;
36379;SDS011;22411;53.016;18.632;2023-07-08T00:10:52;3.42;;;1.70;;
36379;SDS011;22411;53.016;18.632;2023-07-08T00:13:18;5.47;;;2.25;;
36379;SDS011;22411;53.016;18.632;2023-07-08T00:15:44;4.97;;;1.50;;
36379;SDS011;22411;53.016;18.632;2023-07-08T00:18:14;3.92;;;2.08;;
36379;SDS011;22411;53.016;18.632;2023-07-08T00:20:45;5.03;;;2.42;;
36379;SDS011;22411;53.016;18.632;2023-07-08T00:23:13;4.68;;;2.70;;
36379;SDS011;22411;53.016;18.632;2023-07-08T00:25:39;4.38;;;2.08;;
36379;SDS011;22411;53.016;18.632;2023-07-08T00:28:16;3.40;;;2.13;;
36379;SDS011;22411;53.016;18.632;2023-07-08T00:30:45;3.88;;;2.10;;
36379;SDS011;22411;53.016;18.632;2023-07-08T00:33:11;11.00;;;2.55;;
36379;SDS011;22411;53.016;18.632;2023-07-08T00:35:40;5.82;;;2.13;;
36379;SDS011;22411;53.016;18.632;2023-07-08T00:38:21;3.75;;;2.35;;
36379;SDS011;22411;53.016;18.632;2023-07-08T00:40:58;2.97;;;1.90;;
36379;SDS011;22411;53.016;18.632;2023-07-08T00:48:49;2.42;;;1.75;;
36379;SDS011;22411;53.016;18.632;2023-07-08T00:51:17;6.20;;;3.08;;
36379;SDS011;22411;53.016;18.632;2023-07-08T00:53:45;3.67;;;2.33;;
36379;SDS011;22411;53.016;18.632;2023-07-08T00:56:12;5.45;;;2.70;;
36379;SDS011;22411;53.016;18.632;2023-07-08T00:58:46;7.22;;;2.80;;
36379;SDS011;22411;53.016;18.632;2023-07-08T01:01:33;3.35;;;2.20;;
36379;SDS011;22411;53.016;18.632;2023-07-08T01:04:03;6.68;;;2.17;;
36379;SDS011;22411;53.016;18.632;2023-07-08T01:06:34;6.47;;;3.50;;
36379;SDS011;22411;53.016;18.632;2023-07-08T01:09:06;6.82;;;2.90;;
36379;SDS011;22411;53.016;18.632;2023-07-08T01:11:33;4.43;;;2.60;;
36379;SDS011;22411;53.016;18.632;2023-07-08T01:14:03;2.97;;;1.98;;
36379;SDS011;22411;53.016;18.632;2023-07-08T01:16:32;6.18;;;3.22;;
36379;SDS011;22411;53.016;18.632;2023-07-08T01:18:59;5.05;;;3.13;;
36379;SDS011;22411;53.016;18.632;2023-07-08T01:21:36;4.78;;;2.85;;
36379;SDS011;22411;53.016;18.632;2023-07-08T01:24:05;4.63;;;3.17;;
36379;SDS011;22411;53.016;18.632;2023-07-08T01:26:35;4.57;;;3.22;;
36379;SDS011;22411;53.016;18.632;2023-07-08T01:29:07;5.22;;;3.30;;
36379;SDS011;22411;53.016;18.632;2023-07-08T01:31:33;7.38;;;3.30;;
36379;SDS011;22411;53.016;18.632;2023-07-08T01:34:00;4.43;;;3.35;;
36379;SDS011;22411;53.016;18.632;2023-07-08T01:36:26;3.90;;;3.42;;
36379;SDS011;22411;53.016;18.632;2023-07-08T01:38:57;4.20;;;2.75;;
36379;SDS011;22411;53.016;18.632;2023-07-08T01:41:22;10.70;;;3.13;;
36379;SDS011;22411;53.016;18.632;2023-07-08T01:43:48;4.10;;;3.47;;
36379;SDS011;22411;53.016;18.632;2023-07-08T01:46:15;5.57;;;3.42;;
36379;SDS011;22411;53.016;18.632;2023-07-08T01:48:48;9.27;;;3.83;;
36379;SDS011;22411;53.016;18.632;2023-07-08T01:51:18;5.53;;;3.10;;
36379;SDS011;22411;53.016;18.632;2023-07-08T01:53:44;4.88;;;3.10;;
36379;SDS011;22411;53.016;18.632;2023-07-08T01:56:11;6.60;;;4.05;;
36379;SDS011;22411;53.016;18.632;2023-07-08T01:58:38;4.03;;;3.63;;
36379;SDS011;22411;53.016;18.632;2023-07-08T02:01:04;5.30;;;3.20;;
36379;SDS011;22411;53.016;18.632;2023-07-08T02:03:30;4.45;;;3.08;;
36379;SDS011;22411;53.016;18.632;2023-07-08T02:05:56;3.85;;;3.42;;
36379;SDS011;22411;53.016;18.632;2023-07-08T02:08:22;4.75;;;3.58;;
36379;SDS011;22411;53.016;18.632;2023-07-08T02:10:52;4.15;;;3.10;;
36379;SDS011;22411;53.016;18.632;2023-07-08T02:13:22;4.40;;;2.85;;
36379;SDS011;22411;53.016;18.632;2023-07-08T02:15:48;4.80;;;3.05;;
36379;SDS011;22411;53.016;18.632;2023-07-08T02:18:15;6.70;;;4.10;;
36379;SDS011;22411;53.016;18.632;2023-07-08T02:20:42;10.40;;;3.92;;
36379;SDS011;22411;53.016;18.632;2023-07-08T02:23:08;8.10;;;3.50;;
36379;SDS011;22411;53.016;18.632;2023-07-08T02:25:34;3.90;;;3.05;;
36379;SDS011;22411;53.016;18.632;2023-07-08T02:28:00;5.97;;;3.97;;
36379;SDS011;22411;53.016;18.632;2023-07-08T02:30:26;5.40;;;3.30;;
36379;SDS011;22411;53.016;18.632;2023-07-08T02:32:52;4.50;;;3.45;;
36379;SDS011;22411;53.016;18.632;2023-07-08T02:35:25;5.13;;;3.45;;
36379;SDS011;22411;53.016;18.632;2023-07-08T02:37:53;3.88;;;2.53;;
36379;SDS011;22411;53.016;18.632;2023-07-08T02:40:20;3.97;;;3.38;;
36379;SDS011;22411;53.016;18.632;2023-07-08T02:42:46;5.15;;;3.38;;
36379;SDS011;22411;53.016;18.632;2023-07-08T02:45:11;4.88;;;3.30;;
36379;SDS011;22411;53.016;18.632;2023-07-08T02:47:38;7.32;;;3.55;;
36379;SDS011;22411;53.016;18.632;2023-07-08T02:50:03;4.35;;;3.53;;
36379;SDS011;22411;53.016;18.632;2023-07-08T02:52:30;3.50;;;3.17;;
36379;SDS011;22411;53.016;18.632;2023-07-08T02:54:55;6.50;;;3.95;;
36379;SDS011;22411;53.016;18.632;2023-07-08T02:57:21;5.47;;;4.93;;
36379;SDS011;22411;53.016;18.632;2023-07-08T02:59:47;4.82;;;3.67;;
36379;SDS011;22411;53.016;18.632;2023-07-08T03:02:12;6.68;;;3.72;;
36379;SDS011;22411;53.016;18.632;2023-07-08T03:04:38;6.18;;;3.80;;
36379;SDS011;22411;53.016;18.632;2023-07-08T03:07:04;10.35;;;4.38;;
36379;SDS011;22411;53.016;18.632;2023-07-08T03:09:30;4.25;;;3.17;;
36379;SDS011;22411;53.016;18.632;2023-07-08T03:11:58;6.85;;;3.97;;
36379;SDS011;22411;53.016;18.632;2023-07-08T03:14:24;5.50;;;3.20;;
36379;SDS011;22411;53.016;18.632;2023-07-08T03:16:50;4.22;;;3.30;;
36379;SDS011;22411;53.016;18.632;2023-07-08T03:19:15;3.70;;;3.22;;
36379;SDS011;22411;53.016;18.632;2023-07-08T03:21:42;4.63;;;3.65;;
36379;SDS011;22411;53.016;18.632;2023-07-08T03:24:11;6.35;;;3.90;;
36379;SDS011;22411;53.016;18.632;2023-07-08T03:26:44;5.97;;;4.03;;
36379;SDS011;22411;53.016;18.632;2023-07-08T03:29:14;5.40;;;4.55;;
36379;SDS011;22411;53.016;18.632;2023-07-08T03:31:43;7.80;;;4.88;;
36379;SDS011;22411;53.016;18.632;2023-07-08T03:34:11;6.32;;;4.47;;
36379;SDS011;22411;53.016;18.632;2023-07-08T03:36:50;5.65;;;4.57;;
36379;SDS011;22411;53.016;18.632;2023-07-08T03:39:25;6.05;;;4.40;;
36379;SDS011;22411;53.016;18.632;2023-07-08T03:41:51;5.30;;;4.30;;
36379;SDS011;22411;53.016;18.632;2023-07-08T03:44:17;6.78;;;4.40;;
36379;SDS011;22411;53.016;18.632;2023-07-08T03:46:45;6.93;;;4.72;;
36379;SDS011;22411;53.016;18.632;2023-07-08T03:49:13;6.88;;;4.70;;
36379;SDS011;22411;53.016;18.632;2023-07-08T03:51:39;7.97;;;4.55;;
36379;SDS011;22411;53.016;18.632;2023-07-08T03:54:06;6.72;;;4.75;;
36379;SDS011;22411;53.016;18.632;2023-07-08T03:56:36;5.38;;;4.53;;
36379;SDS011;22411;53.016;18.632;2023-07-08T03:59:02;5.65;;;4.72;;
36379;SDS011;22411;53.016;18.632;2023-07-08T04:01:28;5.63;;;5.05;;
36379;SDS011;22411;53.016;18.632;2023-07-08T04:03:54;5.65;;;4.35;;
36379;SDS011;22411;53.016;18.632;2023-07-08T04:06:21;5.93;;;4.30;;
36379;SDS011;22411;53.016;18.632;2023-07-08T04:08:47;10.50;;;4.25;;
36379;SDS011;22411;53.016;18.632;2023-07-08T04:11:14;5.75;;;4.90;;
36379;SDS011;22411;53.016;18.632;2023-07-08T04:13:41;4.47;;;4.00;;
36379;SDS011;22411;53.016;18.632;2023-07-08T04:16:07;6.10;;;5.25;;
36379;SDS011;22411;53.016;18.632;2023-07-08T04:18:41;5.32;;;4.75;;
36379;SDS011;22411;53.016;18.632;2023-07-08T04:21:07;5.25;;;4.35;;
36379;SDS011;22411;53.016;18.632;2023-07-08T04:23:32;6.50;;;4.45;;
36379;SDS011;22411;53.016;18.632;2023-07-08T04:25:58;4.35;;;4.00;;
36379;SDS011;22411;53.016;18.632;2023-07-08T04:28:24;6.38;;;4.80;;
36379;SDS011;22411;53.016;18.632;2023-07-08T04:30:50;5.57;;;4.97;;
36379;SDS011;22411;53.016;18.632;2023-07-08T04:33:16;5.20;;;4.50;;
36379;SDS011;22411;53.016;18.632;2023-07-08T04:35:42;6.70;;;4.38;;
36379;SDS011;22411;53.016;18.632;2023-07-08T04:40:47;6.15;;;5.53;;
36379;SDS011;22411;53.016;18.632;2023-07-08T04:43:17;5.38;;;4.80;;
36379;SDS011;22411;53.016;18.632;2023-07-08T04:45:44;5.75;;;4.38;;
36379;SDS011;22411;53.016;18.632;2023-07-08T04:48:15;5.97;;;5.38;;
36379;SDS011;22411;53.016;18.632;2023-07-08T04:50:43;6.65;;;4.57;;
36379;SDS011;22411;53.016;18.632;2023-07-08T04:53:10;7.05;;;5.05;;
36379;SDS011;22411;53.016;18.632;2023-07-08T04:55:37;10.25;;;5.60;;
36379;SDS011;22411;53.016;18.632;2023-07-08T04:58:04;6.00;;;5.40;;
36379;SDS011;22411;53.016;18.632;2023-07-08T05:00:30;5.78;;;4.60;;
36379;SDS011;22411;53.016;18.632;2023-07-08T05:02:56;6.97;;;5.05;;
36379;SDS011;22411;53.016;18.632;2023-07-08T05:05:22;7.22;;;5.97;;
36379;SDS011;22411;53.016;18.632;2023-07-08T05:07:47;8.85;;;5.07;;
36379;SDS011;22411;53.016;18.632;2023-07-08T05:10:15;6.00;;;4.95;;
36379;SDS011;22411;53.016;18.632;2023-07-08T05:12:41;7.65;;;5.60;;
36379;SDS011;22411;53.016;18.632;2023-07-08T05:15:08;6.90;;;4.93;;
36379;SDS011;22411;53.016;18.632;2023-07-08T05:17:34;6.32;;;5.32;;
36379;SDS011;22411;53.016;18.632;2023-07-08T05:20:00;6.43;;;5.80;;
36379;SDS011;22411;53.016;18.632;2023-07-08T05:22:26;8.10;;;5.32;;
36379;SDS011;22411;53.016;18.632;2023-07-08T05:24:53;8.15;;;6.20;;
36379;SDS011;22411;53.016;18.632;2023-07-08T05:27:21;6.68;;;5.32;;
36379;SDS011;22411;53.016;18.632;2023-07-08T05:29:48;6.43;;;4.95;;
36379;SDS011;22411;53.016;18.632;2023-07-08T05:32:14;7.53;;;5.53;;
36379;SDS011;22411;53.016;18.632;2023-07-08T05:34:40;6.07;;;5.00;;
36379;SDS011;22411;53.016;18.632;2023-07-08T05:37:06;4.68;;;4.25;;
36379;SDS011;22411;53.016;18.632;2023-07-08T05:39:32;5.85;;;5.15;;
36379;SDS011;22411;53.016;18.632;2023-07-08T05:41:58;6.18;;;4.13;;
36379;SDS011;22411;53.016;18.632;2023-07-08T05:44:24;5.07;;;4.50;;
36379;SDS011;22411;53.016;18.632;2023-07-08T05:46:50;4.70;;;3.83;;
36379;SDS011;22411;53.016;18.632;2023-07-08T05:49:16;5.53;;;4.30;;
36379;SDS011;22411;53.016;18.632;2023-07-08T05:51:43;5.40;;;4.75;;
36379;SDS011;22411;53.016;18.632;2023-07-08T05:54:09;9.30;;;4.50;;
36379;SDS011;22411;53.016;18.632;2023-07-08T05:56:34;4.60;;;4.15;;
36379;SDS011;22411;53.016;18.632;2023-07-08T05:59:00;6.03;;;4.35;;
36379;SDS011;22411;53.016;18.632;2023-07-08T06:01:26;6.07;;;4.20;;
36379;SDS011;22411;53.016;18.632;2023-07-08T06:03:52;4.43;;;3.97;;
36379;SDS011;22411;53.016;18.632;2023-07-08T06:06:17;7.32;;;3.78;;
36379;SDS011;22411;53.016;18.632;2023-07-08T06:08:43;6.50;;;4.20;;
36379;SDS011;22411;53.016;18.632;2023-07-08T06:11:09;8.43;;;5.40;;
36379;SDS011;22411;53.016;18.632;2023-07-08T06:13:35;6.35;;;4.25;;
36379;SDS011;22411;53.016;18.632;2023-07-08T06:16:00;5.28;;;4.15;;
36379;SDS011;22411;53.016;18.632;2023-07-08T06:18:26;4.03;;;3.63;;
36379;SDS011;22411;53.016;18.632;2023-07-08T06:20:56;4.95;;;3.53;;
36379;SDS011;22411;53.016;18.632;2023-07-08T06:23:23;3.97;;;3.55;;
36379;SDS011;22411;53.016;18.632;2023-07-08T06:25:49;7.07;;;3.25;;
36379;SDS011;22411;53.016;18.632;2023-07-08T06:28:15;3.45;;;3.15;;
36379;SDS011;22411;53.016;18.632;2023-07-08T06:30:41;3.42;;;2.75;;
36379;SDS011;22411;53.016;18.632;2023-07-08T06:33:07;4.15;;;3.17;;
36379;SDS011;22411;53.016;18.632;2023-07-08T06:35:33;4.30;;;2.80;;
36379;SDS011;22411;53.016;18.632;2023-07-08T06:37:58;5.10;;;3.05;;
36379;SDS011;22411;53.016;18.632;2023-07-08T06:40:24;3.42;;;2.70;;
36379;SDS011;22411;53.016;18.632;2023-07-08T06:42:50;5.55;;;3.50;;
36379;SDS011;22411;53.016;18.632;2023-07-08T06:45:16;4.60;;;2.60;;
36379;SDS011;22411;53.016;18.632;2023-07-08T06:47:41;4.20;;;2.75;;
36379;SDS011;22411;53.016;18.632;2023-07-08T06:50:07;3.85;;;2.72;;
36379;SDS011;22411;53.016;18.632;2023-07-08T06:52:34;4.82;;;2.95;;
36379;SDS011;22411;53.016;18.632;2023-07-08T06:55:00;4.50;;;2.78;;
36379;SDS011;22411;53.016;18.632;2023-07-08T06:57:27;7.32;;;2.38;;
36379;SDS011;22411;53.016;18.632;2023-07-08T06:59:53;3.63;;;2.28;;
36379;SDS011;22411;53.016;18.632;2023-07-08T07:02:19;3.40;;;2.15;;
36379;SDS011;22411;53.016;18.632;2023-07-08T07:04:45;7.00;;;1.85;;
36379;SDS011;22411;53.016;18.632;2023-07-08T07:07:11;3.67;;;2.05;;
36379;SDS011;22411;53.016;18.632;2023-07-08T07:09:37;2.38;;;1.40;;
36379;SDS011;22411;53.016;18.632;2023-07-08T07:12:04;3.10;;;1.00;;
36379;SDS011;22411;53.016;18.632;2023-07-08T07:14:31;2.38;;;1.52;;
36379;SDS011;22411;53.016;18.632;2023-07-08T07:16:57;3.90;;;1.00;;
36379;SDS011;22411;53.016;18.632;2023-07-08T07:19:23;2.80;;;1.58;;
36379;SDS011;22411;53.016;18.632;2023-07-08T07:21:49;4.53;;;1.20;;
36379;SDS011;22411;53.016;18.632;2023-07-08T07:24:14;3.08;;;1.63;;
36379;SDS011;22411;53.016;18.632;2023-07-08T07:26:40;3.10;;;1.23;;
36379;SDS011;22411;53.016;18.632;2023-07-08T07:29:06;3.47;;;1.88;;
36379;SDS011;22411;53.016;18.632;2023-07-08T07:31:31;3.22;;;1.77;;
36379;SDS011;22411;53.016;18.632;2023-07-08T07:34:00;2.72;;;1.67;;
36379;SDS011;22411;53.016;18.632;2023-07-08T07:36:27;5.25;;;2.33;;
36379;SDS011;22411;53.016;18.632;2023-07-08T07:38:54;4.05;;;1.30;;
36379;SDS011;22411;53.016;18.632;2023-07-08T07:41:20;2.97;;;1.40;;
36379;SDS011;22411;53.016;18.632;2023-07-08T07:43:46;2.95;;;1.75;;
36379;SDS011;22411;53.016;18.632;2023-07-08T07:46:12;4.97;;;2.45;;
36379;SDS011;22411;53.016;18.632;2023-07-08T07:48:38;4.47;;;1.70;;
36379;SDS011;22411;53.016;18.632;2023-07-08T07:51:05;4.18;;;2.72;;
36379;SDS011;22411;53.016;18.632;2023-07-08T07:53:32;3.83;;;1.92;;
36379;SDS011;22411;53.016;18.632;2023-07-08T07:55:58;4.40;;;1.45;;
36379;SDS011;22411;53.016;18.632;2023-07-08T07:58:25;4.70;;;1.60;;
36379;SDS011;22411;53.016;18.632;2023-07-08T08:00:51;4.15;;;1.27;;
36379;SDS011;22411;53.016;18.632;2023-07-08T08:03:17;2.42;;;1.38;;
36379;SDS011;22411;53.016;18.632;2023-07-08T08:05:43;3.50;;;1.83;;
36379;SDS011;22411;53.016;18.632;2023-07-08T08:08:08;2.58;;;1.30;;
36379;SDS011;22411;53.016;18.632;2023-07-08T08:10:35;5.50;;;0.98;;
36379;SDS011;22411;53.016;18.632;2023-07-08T08:13:01;4.35;;;1.42;;
36379;SDS011;22411;53.016;18.632;2023-07-08T08:15:28;2.38;;;1.20;;
36379;SDS011;22411;53.016;18.632;2023-07-08T08:17:53;2.38;;;0.65;;
36379;SDS011;22411;53.016;18.632;2023-07-08T08:20:20;2.90;;;0.57;;
36379;SDS011;22411;53.016;18.632;2023-07-08T08:22:47;3.92;;;0.95;;
36379;SDS011;22411;53.016;18.632;2023-07-08T08:25:14;2.97;;;0.70;;
36379;SDS011;22411;53.016;18.632;2023-07-08T08:27:40;1.58;;;0.60;;
36379;SDS011;22411;53.016;18.632;2023-07-08T08:30:06;2.35;;;1.17;;
36379;SDS011;22411;53.016;18.632;2023-07-08T08:32:32;3.47;;;1.13;;
36379;SDS011;22411;53.016;18.632;2023-07-08T08:34:58;3.22;;;0.57;;
36379;SDS011;22411;53.016;18.632;2023-07-08T08:37:23;2.88;;;0.70;;
36379;SDS011;22411;53.016;18.632;2023-07-08T08:39:49;2.25;;;0.70;;
36379;SDS011;22411;53.016;18.632;2023-07-08T08:42:25;1.30;;;0.60;;
36379;SDS011;22411;53.016;18.632;2023-07-08T08:44:53;3.10;;;0.65;;
36379;SDS011;22411;53.016;18.632;2023-07-08T08:49:57;1.48;;;0.40;;
36379;SDS011;22411;53.016;18.632;2023-07-08T08:52:28;1.35;;;0.60;;
36379;SDS011;22411;53.016;18.632;2023-07-08T08:54:55;2.95;;;0.80;;
36379;SDS011;22411;53.016;18.632;2023-07-08T08:57:31;1.45;;;0.50;;
36379;SDS011;22411;53.016;18.632;2023-07-08T09:00:03;1.42;;;0.57;;
36379;SDS011;22411;53.016;18.632;2023-07-08T09:05:19;1.40;;;0.70;;
36379;SDS011;22411;53.016;18.632;2023-07-08T09:13:16;1.95;;;0.60;;
36379;SDS011;22411;53.016;18.632;2023-07-08T09:18:34;2.28;;;0.57;;
36379;SDS011;22411;53.016;18.632;2023-07-08T09:21:19;1.45;;;0.55;;
36379;SDS011;22411;53.016;18.632;2023-07-08T09:23:49;1.83;;;0.70;;
36379;SDS011;22411;53.016;18.632;2023-07-08T09:26:21;1.67;;;0.50;;
36379;SDS011;22411;53.016;18.632;2023-07-08T09:28:49;1.70;;;0.73;;
36379;SDS011;22411;53.016;18.632;2023-07-08T09:31:23;1.50;;;0.50;;
36379;SDS011;22411;53.016;18.632;2023-07-08T09:33:52;2.92;;;0.80;;
36379;SDS011;22411;53.016;18.632;2023-07-08T09:36:29;1.27;;;0.65;;
36379;SDS011;22411;53.016;18.632;2023-07-08T09:38:55;1.70;;;0.60;;
36379;SDS011;22411;53.016;18.632;2023-07-08T09:41:33;2.25;;;0.60;;
36379;SDS011;22411;53.016;18.632;2023-07-08T09:44:04;1.53;;;0.93;;
36379;SDS011;22411;53.016;18.632;2023-07-08T09:46:41;2.58;;;0.73;;
36379;SDS011;22411;53.016;18.632;2023-07-08T09:49:20;1.15;;;0.50;;
36379;SDS011;22411;53.016;18.632;2023-07-08T09:51:56;3.20;;;0.65;;
36379;SDS011;22411;53.016;18.632;2023-07-08T09:54:22;1.67;;;0.50;;
36379;SDS011;22411;53.016;18.632;2023-07-08T09:56:57;1.40;;;0.60;;
36379;SDS011;22411;53.016;18.632;2023-07-08T09:59:26;1.40;;;0.60;;
36379;SDS011;22411;53.016;18.632;2023-07-08T10:02:00;1.10;;;0.60;;
36379;SDS011;22411;53.016;18.632;2023-07-08T10:04:29;2.47;;;0.60;;
36379;SDS011;22411;53.016;18.632;2023-07-08T10:06:55;1.25;;;0.43;;
36379;SDS011;22411;53.016;18.632;2023-07-08T10:09:23;1.42;;;0.43;;
36379;SDS011;22411;53.016;18.632;2023-07-08T10:11:55;2.67;;;0.80;;
36379;SDS011;22411;53.016;18.632;2023-07-08T10:14:30;2.00;;;0.50;;
36379;SDS011;22411;53.016;18.632;2023-07-08T10:17:01;1.63;;;0.70;;
36379;SDS011;22411;53.016;18.632;2023-07-08T10:19:27;1.55;;;0.68;;
36379;SDS011;22411;53.016;18.632;2023-07-08T10:22:13;2.60;;;0.55;;
36379;SDS011;22411;53.016;18.632;2023-07-08T10:27:57;2.72;;;0.80;;
36379;SDS011;22411;53.016;18.632;2023-07-08T10:30:53;1.17;;;0.50;;
36379;SDS011;22411;53.016;18.632;2023-07-08T10:33:34;1.65;;;0.60;;
36379;SDS011;22411;53.016;18.632;2023-07-08T10:36:23;2.30;;;0.45;;
36379;SDS011;22411;53.016;18.632;2023-07-08T10:39:25;2.10;;;0.57;;
36379;SDS011;22411;53.016;18.632;2023-07-08T10:42:01;3.45;;;0.70;;
36379;SDS011;22411;53.016;18.632;2023-07-08T10:44:44;1.42;;;0.52;;
36379;SDS011;22411;53.016;18.632;2023-07-08T10:52:46;2.05;;;0.52;;
36379;SDS011;22411;53.016;18.632;2023-07-08T10:55:58;1.23;;;0.45;;
36379;SDS011;22411;53.016;18.632;2023-07-08T11:01:10;1.48;;;0.43;;
36379;SDS011;22411;53.016;18.632;2023-07-08T11:03:56;1.52;;;0.70;;
36379;SDS011;22411;53.016;18.632;2023-07-08T11:09:09;0.95;;;0.35;;
36379;SDS011;22411;53.016;18.632;2023-07-08T11:11:43;1.45;;;0.50;;
36379;SDS011;22411;53.016;18.632;2023-07-08T11:17:33;1.67;;;0.50;;
36379;SDS011;22411;53.016;18.632;2023-07-08T11:20:19;1.95;;;0.80;;
36379;SDS011;22411;53.016;18.632;2023-07-08T11:22:56;1.55;;;0.50;;
36379;SDS011;22411;53.016;18.632;2023-07-08T11:25:27;3.13;;;0.70;;
36379;SDS011;22411;53.016;18.632;2023-07-08T11:27:55;7.63;;;1.40;;
36379;SDS011;22411;53.016;18.632;2023-07-08T11:30:23;1.27;;;0.40;;
36379;SDS011;22411;53.016;18.632;2023-07-08T11:32:54;1.45;;;0.60;;
36379;SDS011;22411;53.016;18.632;2023-07-08T11:35:32;2.95;;;0.65;;
36379;SDS011;22411;53.016;18.632;2023-07-08T11:38:02;2.08;;;0.68;;
36379;SDS011;22411;53.016;18.632;2023-07-08T11:40:29;1.52;;;0.90;;
36379;SDS011;22411;53.016;18.632;2023-07-08T11:43:00;2.30;;;0.70;;
36379;SDS011;22411;53.016;18.632;2023-07-08T11:45:38;2.55;;;0.82;;
36379;SDS011;22411;53.016;18.632;2023-07-08T11:48:09;1.58;;;0.60;;
36379;SDS011;22411;53.016;18.632;2023-07-08T11:50:40;1.70;;;0.65;;
36379;SDS011;22411;53.016;18.632;2023-07-08T11:53:08;2.57;;;1.37;;
36379;SDS011;22411;53.016;18.632;2023-07-08T11:55:37;2.75;;;0.60;;
36379;SDS011;22411;53.016;18.632;2023-07-08T11:58:21;1.10;;;0.60;;
36379;SDS011;22411;53.016;18.632;2023-07-08T12:01:38;1.33;;;0.50;;
36379;SDS011;22411;53.016;18.632;2023-07-08T12:03:41;1.85;;;0.57;;
36379;SDS011;22411;53.016;18.632;2023-07-08T12:08:57;2.42;;;0.88;;
36379;SDS011;22411;53.016;18.632;2023-07-08T12:11:25;1.73;;;0.80;;
36379;SDS011;22411;53.016;18.632;2023-07-08T12:13:57;1.42;;;0.50;;
36379;SDS011;22411;53.016;18.632;2023-07-08T12:16:25;2.65;;;0.70;;
36379;SDS011;22411;53.016;18.632;2023-07-08T12:18:52;2.03;;;0.73;;
36379;SDS011;22411;53.016;18.632;2023-07-08T12:21:21;1.85;;;0.70;;
36379;SDS011;22411;53.016;18.632;2023-07-08T12:23:48;2.58;;;0.60;;
36379;SDS011;22411;53.016;18.632;2023-07-08T12:26:14;2.25;;;0.65;;
36379;SDS011;22411;53.016;18.632;2023-07-08T12:28:40;1.50;;;0.60;;
36379;SDS011;22411;53.016;18.632;2023-07-08T12:31:18;2.13;;;0.90;;
36379;SDS011;22411;53.016;18.632;2023-07-08T12:33:47;3.50;;;0.95;;
36379;SDS011;22411;53.016;18.632;2023-07-08T12:36:15;3.38;;;0.65;;
36379;SDS011;22411;53.016;18.632;2023-07-08T12:38:44;1.35;;;0.70;;
36379;SDS011;22411;53.016;18.632;2023-07-08T12:41:12;2.08;;;0.55;;
36379;SDS011;22411;53.016;18.632;2023-07-08T12:43:46;1.65;;;0.70;;
36379;SDS011;22411;53.016;18.632;2023-07-08T12:46:13;1.88;;;0.65;;
36379;SDS011;22411;53.016;18.632;2023-07-08T12:48:42;2.15;;;0.43;;
36379;SDS011;22411;53.016;18.632;2023-07-08T12:51:12;1.35;;;0.40;;
36379;SDS011;22411;53.016;18.632;2023-07-08T12:53:41;2.85;;;0.50;;
36379;SDS011;22411;53.016;18.632;2023-07-08T12:56:07;1.30;;;0.52;;
36379;SDS011;22411;53.016;18.632;2023-07-08T12:58:34;1.10;;;0.50;;
36379;SDS011;22411;53.016;18.632;2023-07-08T13:01:05;1.92;;;0.50;;
36379;SDS011;22411;53.016;18.632;2023-07-08T13:03:36;1.23;;;0.70;;
36379;SDS011;22411;53.016;18.632;2023-07-08T13:06:05;5.47;;;0.93;;
36379;SDS011;22411;53.016;18.632;2023-07-08T13:08:35;1.60;;;0.50;;
36379;SDS011;22411;53.016;18.632;2023-07-08T13:11:02;1.27;;;0.73;;
36379;SDS011;22411;53.016;18.632;2023-07-08T13:13:31;2.35;;;0.60;;
36379;SDS011;22411;53.016;18.632;2023-07-08T13:16:00;1.80;;;0.60;;
36379;SDS011;22411;53.016;18.632;2023-07-08T13:18:31;2.67;;;0.80;;
36379;SDS011;22411;53.016;18.632;2023-07-08T13:20:59;3.03;;;0.52;;
36379;SDS011;22411;53.016;18.632;2023-07-08T13:23:26;2.05;;;0.93;;
36379;SDS011;22411;53.016;18.632;2023-07-08T13:25:53;2.58;;;0.80;;
36379;SDS011;22411;53.016;18.632;2023-07-08T13:28:24;2.17;;;0.55;;
36379;SDS011;22411;53.016;18.632;2023-07-08T13:30:51;1.98;;;0.90;;
36379;SDS011;22411;53.016;18.632;2023-07-08T13:33:21;3.83;;;1.92;;
36379;SDS011;22411;53.016;18.632;2023-07-08T13:35:48;1.60;;;0.70;;
36379;SDS011;22411;53.016;18.632;2023-07-08T13:38:16;1.98;;;0.40;;
36379;SDS011;22411;53.016;18.632;2023-07-08T13:40:45;1.80;;;1.10;;
36379;SDS011;22411;53.016;18.632;2023-07-08T13:43:12;1.17;;;0.55;;
36379;SDS011;22411;53.016;18.632;2023-07-08T13:45:42;2.67;;;0.65;;
36379;SDS011;22411;53.016;18.632;2023-07-08T13:48:34;2.30;;;0.50;;
36379;SDS011;22411;53.016;18.632;2023-07-08T13:51:14;2.47;;;0.60;;
36379;SDS011;22411;53.016;18.632;2023-07-08T13:53:44;4.90;;;0.70;;
36379;SDS011;22411;53.016;18.632;2023-07-08T13:56:21;1.38;;;0.63;;
36379;SDS011;22411;53.016;18.632;2023-07-08T13:58:52;2.45;;;0.65;;
36379;SDS011;22411;53.016;18.632;2023-07-08T14:01:25;3.15;;;1.08;;
36379;SDS011;22411;53.016;18.632;2023-07-08T14:03:52;1.70;;;0.60;;
36379;SDS011;22411;53.016;18.632;2023-07-08T14:06:21;2.63;;;0.90;;
36379;SDS011;22411;53.016;18.632;2023-07-08T14:08:48;4.00;;;1.35;;
36379;SDS011;22411;53.016;18.632;2023-07-08T14:11:14;2.00;;;0.95;;
36379;SDS011;22411;53.016;18.632;2023-07-08T14:13:40;2.38;;;0.70;;
36379;SDS011;22411;53.016;18.632;2023-07-08T14:16:25;2.10;;;0.80;;
36379;SDS011;22411;53.016;18.632;2023-07-08T14:18:54;10.25;;;9.25;;
36379;SDS011;22411;53.016;18.632;2023-07-08T14:21:22;2.72;;;0.60;;
36379;SDS011;22411;53.016;18.632;2023-07-08T14:23:47;3.45;;;0.93;;
36379;SDS011;22411;53.016;18.632;2023-07-08T14:26:13;3.47;;;0.88;;
36379;SDS011;22411;53.016;18.632;2023-07-08T14:28:39;1.88;;;0.73;;
36379;SDS011;22411;53.016;18.632;2023-07-08T14:31:12;3.60;;;0.75;;
36379;SDS011;22411;53.016;18.632;2023-07-08T14:33:39;2.78;;;0.55;;
36379;SDS011;22411;53.016;18.632;2023-07-08T14:36:12;1.77;;;0.40;;
36379;SDS011;22411;53.016;18.632;2023-07-08T14:38:39;1.30;;;0.70;;
36379;SDS011;22411;53.016;18.632;2023-07-08T14:41:05;1.80;;;0.70;;
36379;SDS011;22411;53.016;18.632;2023-07-08T14:43:31;1.60;;;0.77;;
36379;SDS011;22411;53.016;18.632;2023-07-08T14:45:59;2.10;;;0.55;;
36379;SDS011;22411;53.016;18.632;2023-07-08T14:48:28;2.25;;;0.85;;
36379;SDS011;22411;53.016;18.632;2023-07-08T14:50:55;1.88;;;0.50;;
36379;SDS011;22411;53.016;18.632;2023-07-08T14:53:20;3.95;;;0.73;;
36379;SDS011;22411;53.016;18.632;2023-07-08T14:55:47;1.63;;;0.93;;
36379;SDS011;22411;53.016;18.632;2023-07-08T14:58:17;2.95;;;1.38;;
36379;SDS011;22411;53.016;18.632;2023-07-08T15:00:47;1.52;;;0.70;;
36379;SDS011;22411;53.016;18.632;2023-07-08T15:03:14;1.52;;;0.65;;
36379;SDS011;22411;53.016;18.632;2023-07-08T15:05:40;2.65;;;0.60;;
36379;SDS011;22411;53.016;18.632;2023-07-08T15:08:07;1.88;;;0.70;;
36379;SDS011;22411;53.016;18.632;2023-07-08T15:10:33;1.45;;;0.50;;
36379;SDS011;22411;53.016;18.632;2023-07-08T15:13:01;1.48;;;0.75;;
36379;SDS011;22411;53.016;18.632;2023-07-08T15:17:58;1.08;;;0.45;;
36379;SDS011;22411;53.016;18.632;2023-07-08T15:20:26;4.25;;;3.85;;
36379;SDS011;22411;53.016;18.632;2023-07-08T15:22:51;2.80;;;0.80;;
36379;SDS011;22411;53.016;18.632;2023-07-08T15:25:18;1.90;;;0.80;;
36379;SDS011;22411;53.016;18.632;2023-07-08T15:27:44;1.55;;;0.90;;